Flight Track Log - Related Links

Times and Time Zones

All times are in EDT time to prevent confusion due to time zone crossing. See the CHQ6401 flight status page for this flight to view local times or setup timezone preferences in your user account.

Time Position Orientation Groundspeed Altitude Reporting Facility
EDT Latitude Longitude Course Direction KTS MPH feet Rate Location/Type
Sat 02:28:54 PM 42.2017 -83.3553 90° East 154 177 1,400  Level Cleveland Center
Sat 02:29:37 PM 42.1664 -83.3511 175° South 189 217 2,900 2,265 Climbing Cleveland Center
Sat 02:30:32 PM 42.1208 -83.3378 168° South 224 258 5,100 2,438 Climbing Cleveland Center
Sat 02:31:45 PM 42.0878 -83.2386 114° Southeast 262 302 8,100 2,090 Climbing Cleveland Center
Sat 02:32:00 PM 42.3106 -82.7804 75° East  Level FlightAware Approximate
Sat 02:33:00 PM 42.3282 -82.6351 82° East  Level FlightAware Approximate
Sat 02:33:07 PM 42.1303 -83.1031 67° East 280 322 10,500  Level Cleveland Center
Sat 02:34:00 PM 42.3500 -82.4918 90° East  Level FlightAware Approximate
Sat 02:34:07 PM 42.1703 -82.9925 64° Northeast 304 350 11,800  Level Cleveland Center
Sat 02:35:07 PM 42.2142 -82.8764 63° Northeast 331 381 13,600 1,800 Climbing Cleveland Center
Sat 02:36:07 PM 42.2606 -82.7492 64° Northeast 344 396 15,400 1,750 Climbing Cleveland Center
Sat 02:37:07 PM 42.2817 -82.6208 77° East 356 410 17,100 1,500 Climbing Cleveland Center
Sat 02:38:07 PM 42.2944 -82.4750 83° East 368 423 18,400 1,350 Climbing Cleveland Center
Sat 02:39:07 PM 42.3053 -82.3267 84° East 382 440 19,800 1,500 Climbing Cleveland Center
Sat 02:40:07 PM 42.3158 -82.1781 84° East 388 447 21,400 1,550 Climbing Cleveland Center
Sat 02:41:07 PM 42.3261 -82.0267 85° East 394 453 22,900 1,300 Climbing Cleveland Center
Sat 02:42:07 PM 42.3383 -81.8753 84° East 406 467 24,000 650 Climbing Cleveland Center
Sat 02:43:07 PM 42.3506 -81.7125 84° East 421 484 24,200 750 Climbing Cleveland Center
Sat 02:44:07 PM 42.3603 -81.5414 86° East 441 507 25,500 1,150 Climbing Cleveland Center
Sat 02:45:07 PM 42.3719 -81.3897 84° East 448 516 26,500 750 Climbing Cleveland Center
Sat 02:46:07 PM 42.3814 -81.2211 86° East 448 516 27,000 250 Climbing Cleveland Center
Sat 02:47:07 PM 42.3925 -81.0414 85° East 466 536 27,000  Level Cleveland Center
Sat 02:48:07 PM 42.4056 -80.8617 84° East 482 555 27,000  Level Cleveland Center
Sat 02:49:07 PM 42.4228 -80.6817 83° East 477 549 27,000  Level Cleveland Center
Sat 02:50:07 PM 42.4539 -80.4875 78° East 477 549 27,000  Level Cleveland Center
Sat 02:51:07 PM 42.4828 -80.3158 77° East 472 543 27,000  Level Cleveland Center
Sat 02:52:07 PM 42.5094 -80.1522 77° East 453 521 27,000  Level Cleveland Center
Sat 02:53:07 PM 42.5358 -79.9914 77° East 442 509 27,000  Level Cleveland Center
Sat 02:54:07 PM 42.5619 -79.8417 77° East 442 509 27,000  Level Cleveland Center
Sat 02:55:07 PM 42.5881 -79.6836 77° East 442 509 27,000  Level Cleveland Center
Sat 02:56:07 PM 42.6136 -79.5225 78° East 430 495 27,000  Level Cleveland Center
Sat 02:57:07 PM 42.6414 -79.3583 77° East 437 503 27,000  Level Cleveland Center
Sat 02:58:07 PM 42.6664 -79.1911 78° East 437 503 27,000 -100 Level Cleveland Center
Sat 02:59:07 PM 42.6936 -79.0211 78° East 448 516 26,800 -550 Descending Cleveland Center
Sat 03:00:07 PM 42.7203 -78.8564 78° East 453 521 25,900 -900 Descending Cleveland Center
Sat 03:01:07 PM 42.7469 -78.6861 78° East 453 521 25,000 -950 Descending Cleveland Center
Sat 03:02:07 PM 42.7731 -78.5183 78° East 453 521 24,000 -950 Descending Cleveland Center
Sat 03:03:07 PM 42.7972 -78.3506 79° East 453 521 23,100 -500 Descending Cleveland Center
Sat 03:04:07 PM 42.8231 -78.1856 78° East 448 516 23,000 -200 Descending Cleveland Center
Sat 03:05:07 PM 42.8483 -78.0117 79° East 441 507 22,700 -950 Descending Cleveland Center
Sat 03:06:07 PM 42.8697 -77.8522 80° East 430 495 21,100 -1,700 Descending Cleveland Center
Sat 03:07:07 PM 42.8931 -77.6983 78° East 420 483 19,300 -1,900 Descending Cleveland Center
Sat 03:08:07 PM 42.9144 -77.5497 79° East 414 476 17,300 -2,100 Descending Cleveland Center
Sat 03:09:07 PM 42.9333 -77.4042 80° East 403 464 15,100 -2,100 Descending Cleveland Center
Sat 03:10:07 PM 42.9544 -77.2611 79° East 386 444 13,100 -1,316 Descending Cleveland Center
Sat 03:12:14 PM 42.9928 -76.9997 79° East 354 407 11,000 -670 Descending Boston Center
Sat 03:13:15 PM 43.0114 -76.8419 81° East 359 413 11,000 -49 Level Boston Center
Sat 03:14:16 PM 43.0000 -76.7078 97° East 353 406 10,900 -609 Descending Boston Center
Sat 03:15:23 PM 42.9878 -76.5819 98° East 303 349 9,700 -1,323 Descending Boston Center
Sat 03:16:23 PM 42.9878 -76.4711 90° East 287 330 8,100 -1,537 Descending Boston Center
Sat 03:17:24 PM 42.9872 -76.3631 90° East 286 329 6,600 -1,537 Descending Boston Center
Sat 03:18:24 PM 42.9889 -76.2581 89° East 284 327 5,000 -1,537 Descending Boston Center
Sat 03:19:25 PM 42.9900 -76.1617 89° East 278 320 3,500 -1,475 Descending Boston Center

Login

Don't have an account? Register now (free) for customized features, flight alerts, and more!